createdAt,value
2017-07-08T00:00:11.810Z,25.59
2017-07-08T00:01:22.175Z,25.56
2017-07-08T00:02:32.212Z,25.54
2017-07-08T00:03:42.573Z,25.49
2017-07-08T00:04:52.931Z,25.48
2017-07-08T00:06:03.288Z,25.54
2017-07-08T00:07:13.643Z,25.56
2017-07-08T00:08:24.048Z,25.54
2017-07-08T00:09:34.426Z,25.42
2017-07-08T00:10:44.770Z,25.52
2017-07-08T00:11:55.162Z,25.47
2017-07-08T00:13:05.184Z,25.54
2017-07-08T00:14:15.591Z,25.57
2017-07-08T00:15:25.942Z,25.52
2017-07-08T00:16:36.293Z,25.52
2017-07-08T00:17:46.651Z,25.56
2017-07-08T00:18:56.689Z,25.52
2017-07-08T00:20:07.108Z,25.52
2017-07-08T00:21:17.475Z,25.54
2017-07-08T00:22:27.822Z,25.54
2017-07-08T00:23:38.235Z,25.52
2017-07-08T00:24:48.590Z,25.56
2017-07-08T00:25:58.673Z,25.56
2017-07-08T00:27:09.035Z,25.49
2017-07-08T00:28:19.386Z,25.56
2017-07-08T00:29:29.108Z,25.51
2017-07-08T00:30:39.154Z,25.52
2017-07-08T00:31:49.554Z,25.52
2017-07-08T00:32:59.917Z,25.52
2017-07-08T00:34:10.282Z,25.56
2017-07-08T00:35:20.331Z,25.56
2017-07-08T00:36:30.353Z,25.54
2017-07-08T00:37:40.712Z,25.52
2017-07-08T00:38:51.052Z,25.6
2017-07-08T00:40:01.415Z,25.52
2017-07-08T00:41:11.470Z,25.49
2017-07-08T00:42:21.833Z,25.41
2017-07-08T00:43:31.601Z,25.41
2017-07-08T00:44:41.944Z,25.34
2017-07-08T00:45:52.298Z,25.34
2017-07-08T00:47:02.334Z,25.39
2017-07-08T00:48:12.367Z,25.38
2017-07-08T00:49:22.450Z,25.32
2017-07-08T00:50:32.810Z,25.29
2017-07-08T00:51:42.856Z,25.39
2017-07-08T00:52:53.218Z,25.38
2017-07-08T00:54:03.580Z,25.29
2017-07-08T00:55:13.662Z,25.42
2017-07-08T00:56:23.708Z,25.38
2017-07-08T00:57:34.050Z,25.33
2017-07-08T00:58:44.400Z,25.41
2017-07-08T00:59:54.759Z,25.37
2017-07-08T01:01:04.856Z,25.41
2017-07-08T01:02:15.219Z,25.33
2017-07-08T01:03:25.586Z,25.39
2017-07-08T01:04:35.950Z,25.37
2017-07-08T01:05:45.682Z,25.32
2017-07-08T01:06:55.736Z,25.39
2017-07-08T01:08:06.096Z,25.33
2017-07-08T01:09:16.464Z,25.29
2017-07-08T01:10:26.486Z,25.37
2017-07-08T01:11:36.851Z,25.29
2017-07-08T01:12:47.198Z,25.33
2017-07-08T01:13:57.569Z,25.29
2017-07-08T01:15:07.932Z,25.3
2017-07-08T01:16:18.282Z,25.3
2017-07-08T01:17:28.629Z,25.29
2017-07-08T01:18:39.033Z,25.27
2017-07-08T01:19:49.634Z,25.32
2017-07-08T01:20:59.672Z,25.24
2017-07-08T01:22:10.031Z,25.29
2017-07-08T01:23:20.387Z,25.33
2017-07-08T01:24:30.787Z,25.33
2017-07-08T01:25:41.148Z,25.32
2017-07-08T01:26:51.499Z,25.3
2017-07-08T01:28:01.529Z,25.27
2017-07-08T01:29:11.884Z,25.29
2017-07-08T01:30:21.994Z,25.27
2017-07-08T01:31:32.365Z,25.29
2017-07-08T01:32:42.716Z,25.37
2017-07-08T01:33:53.059Z,25.32
2017-07-08T01:35:03.404Z,25.38
2017-07-08T01:36:13.749Z,25.32
2017-07-08T01:37:24.090Z,25.33
2017-07-08T01:38:34.459Z,25.41
2017-07-08T01:39:44.803Z,25.39
2017-07-08T01:40:55.176Z,25.41
2017-07-08T01:42:05.586Z,25.32
2017-07-08T01:43:15.929Z,25.37
2017-07-08T01:44:25.968Z,25.34
2017-07-08T01:45:36.014Z,25.3
2017-07-08T01:46:46.366Z,25.33
2017-07-08T01:47:56.771Z,25.3
2017-07-08T01:49:06.487Z,25.3
2017-07-08T01:50:16.834Z,25.3
2017-07-08T01:51:26.862Z,25.26
2017-07-08T01:52:37.228Z,25.26
2017-07-08T01:53:47.000Z,25.32
2017-07-08T01:54:57.038Z,25.3
2017-07-08T01:56:07.375Z,25.32
2017-07-08T01:57:17.731Z,25.3
2017-07-08T01:58:28.090Z,25.29
2017-07-08T01:59:38.444Z,25.26
2017-07-08T02:00:48.793Z,25.27
2017-07-08T02:01:59.161Z,25.3
2017-07-08T02:03:09.190Z,25.29
2017-07-08T02:04:19.565Z,25.29
2017-07-08T02:05:29.665Z,25.3
2017-07-08T02:06:40.026Z,25.38
2017-07-08T02:07:50.363Z,25.37
2017-07-08T02:09:00.394Z,25.38
2017-07-08T02:10:10.744Z,25.39
2017-07-08T02:11:21.111Z,25.33
2017-07-08T02:12:31.144Z,25.41
2017-07-08T02:13:41.496Z,25.33
2017-07-08T02:14:51.540Z,25.33
2017-07-08T02:16:01.918Z,25.33
2017-07-08T02:17:12.282Z,25.32
2017-07-08T02:18:22.652Z,25.37
2017-07-08T02:19:33.025Z,25.38
2017-07-08T02:20:43.387Z,25.3
2017-07-08T02:21:53.757Z,25.3
2017-07-08T02:23:03.789Z,25.27
2017-07-08T02:24:14.146Z,25.26
2017-07-08T02:25:24.182Z,25.33
2017-07-08T02:26:34.229Z,25.37
2017-07-08T02:27:43.947Z,25.3
2017-07-08T02:28:53.447Z,25.3
2017-07-08T02:30:03.795Z,25.33
2017-07-08T02:31:13.841Z,25.3
2017-07-08T02:32:24.198Z,25.3
2017-07-08T02:33:34.552Z,25.33
2017-07-08T02:34:44.633Z,25.37
2017-07-08T02:35:54.986Z,25.3
2017-07-08T02:37:05.320Z,25.38
2017-07-08T02:38:15.669Z,25.29
2017-07-08T02:39:26.015Z,25.33
2017-07-08T02:40:36.453Z,25.34
2017-07-08T02:41:46.484Z,25.38
2017-07-08T02:42:56.506Z,25.33
2017-07-08T02:44:06.556Z,25.3
2017-07-08T02:45:16.926Z,25.38
2017-07-08T02:46:26.986Z,25.29
2017-07-08T02:47:37.338Z,25.24
2017-07-08T02:48:47.684Z,25.32
2017-07-08T02:49:58.041Z,25.33
2017-07-08T02:51:08.447Z,25.29
2017-07-08T02:52:18.208Z,25.32
2017-07-08T02:53:28.551Z,25.3
2017-07-08T02:54:38.903Z,25.29
2017-07-08T02:55:49.259Z,25.29
2017-07-08T02:56:59.308Z,25.26
2017-07-08T02:58:09.392Z,25.27
2017-07-08T02:59:19.434Z,25.34
2017-07-08T03:00:29.473Z,25.27
2017-07-08T03:01:39.833Z,25.29
2017-07-08T03:33:30.273Z,23.45
2017-07-08T03:34:40.612Z,23.42
2017-07-08T03:35:50.973Z,23.5
2017-07-08T03:37:01.323Z,23.48
2017-07-08T03:38:11.364Z,23.53
2017-07-08T03:39:21.452Z,23.66
2017-07-08T03:40:31.821Z,23.78
2017-07-08T03:41:42.174Z,23.85
2017-07-08T03:42:52.219Z,24.03
2017-07-08T03:44:02.558Z,24.18
2017-07-08T03:45:12.967Z,24.3
2017-07-08T03:46:23.316Z,24.49
2017-07-08T03:47:33.346Z,24.63
2017-07-08T03:48:43.380Z,24.83
2017-07-08T03:49:53.410Z,24.87
2017-07-08T03:51:03.759Z,24.96
2017-07-08T03:52:13.794Z,25.14
2017-07-08T03:53:23.832Z,25.17
2017-07-08T03:54:34.187Z,25.33
2017-07-08T03:55:44.545Z,25.45
2017-07-08T03:56:54.950Z,25.57
2017-07-08T03:58:04.994Z,25.66
2017-07-08T03:59:15.027Z,25.7
2017-07-08T04:00:25.384Z,25.79
2017-07-08T04:01:35.728Z,25.96
2017-07-08T04:02:46.135Z,26.01
2017-07-08T04:03:56.496Z,26.19
2017-07-08T04:05:06.853Z,26.24
2017-07-08T04:06:17.218Z,26.37
2017-07-08T04:07:27.581Z,26.44
2017-07-08T04:08:37.620Z,26.53
2017-07-08T04:09:47.339Z,26.59
2017-07-08T04:10:57.719Z,26.71
2017-07-08T04:12:08.079Z,26.82
2017-07-08T04:13:18.443Z,26.9
2017-07-08T04:14:28.543Z,26.97
2017-07-08T04:15:38.273Z,27.11
2017-07-08T04:16:48.661Z,27.08
2017-07-08T04:17:59.039Z,27.24
2017-07-08T04:19:09.410Z,27.3
2017-07-08T04:20:19.487Z,27.34
2017-07-08T04:21:29.847Z,27.43
2017-07-08T04:22:39.885Z,27.55
2017-07-08T04:23:50.232Z,27.53
2017-07-08T04:25:00.589Z,28.54
2017-07-08T04:26:10.932Z,30.32
2017-07-08T04:27:21.285Z,31.72
2017-07-08T04:28:31.654Z,32.93
2017-07-08T04:29:42.011Z,33.96
2017-07-08T04:30:52.059Z,34.43
2017-07-08T04:32:02.464Z,34.97
2017-07-08T04:33:12.838Z,35.18
2017-07-08T04:34:23.194Z,35.01
2017-07-08T04:35:33.233Z,34.97
2017-07-08T04:36:43.271Z,35.24
2017-07-08T04:37:53.672Z,35.4
2017-07-08T04:39:03.719Z,35.74
2017-07-08T04:40:14.071Z,36.09
2017-07-08T04:41:24.105Z,35.64
2017-07-08T04:42:34.446Z,35.77
2017-07-08T04:43:45.113Z,36.43
2017-07-08T04:44:54.835Z,35.76
2017-07-08T04:46:05.210Z,34.37
2017-07-08T04:47:15.251Z,33.62
2017-07-08T04:48:25.596Z,33.68
2017-07-08T04:49:35.955Z,33.28
2017-07-08T04:50:46.002Z,33.62
2017-07-08T04:51:56.361Z,33.61
2017-07-08T04:53:06.725Z,34.83
2017-07-08T04:54:16.834Z,35.64
2017-07-08T04:55:27.213Z,35.99
2017-07-08T04:56:36.652Z,36.49
2017-07-08T04:57:47.014Z,36.77
2017-07-08T04:58:57.379Z,37.18
2017-07-08T05:00:07.425Z,37.36
2017-07-08T05:01:17.510Z,37.54
2017-07-08T05:02:27.545Z,37.71
2017-07-08T05:03:37.283Z,37.86
2017-07-08T05:04:47.329Z,37.96
2017-07-08T05:05:57.389Z,38.2
2017-07-08T05:07:07.806Z,38.36
2017-07-08T05:08:17.508Z,38.46
2017-07-08T05:09:27.859Z,38.44
2017-07-08T05:10:38.221Z,38.52
2017-07-08T05:11:48.589Z,38.4
2017-07-08T05:12:58.695Z,38.33
2017-07-08T05:14:09.066Z,38.3
2017-07-08T05:15:19.460Z,38.47
2017-07-08T05:16:29.497Z,38.68
2017-07-08T05:17:39.859Z,38.83
2017-07-08T05:18:50.264Z,39.15
2017-07-08T05:20:00.310Z,39.31
2017-07-08T05:21:10.666Z,39.42
2017-07-08T05:22:21.019Z,39.46
2017-07-08T05:23:31.372Z,39.54
2017-07-08T05:24:41.817Z,39.6
2017-07-08T05:25:52.186Z,39.64
2017-07-08T05:27:02.551Z,39.59
2017-07-08T05:28:12.911Z,39.5
2017-07-08T05:29:23.288Z,39.4
2017-07-08T05:30:33.702Z,39.16
2017-07-08T05:31:44.059Z,39.08
2017-07-08T05:32:54.102Z,38.89
2017-07-08T05:34:04.136Z,38.73
2017-07-08T05:35:14.488Z,38.74
2017-07-08T05:36:24.902Z,38.56
2017-07-08T05:37:34.937Z,38.58
2017-07-08T05:38:45.004Z,38.52
2017-07-08T05:39:55.380Z,38.39
2017-07-08T05:41:05.747Z,38.42
2017-07-08T05:42:15.784Z,38.4
2017-07-08T05:43:25.840Z,38.37
2017-07-08T05:44:36.207Z,38.46
2017-07-08T05:45:46.564Z,38.44
2017-07-08T05:46:56.952Z,38.47
2017-07-08T05:48:07.006Z,38.43
2017-07-08T05:49:17.373Z,38.56
2017-07-08T05:50:27.732Z,38.42
2017-07-08T05:51:38.110Z,38.5
2017-07-08T05:52:48.164Z,38.49
2017-07-08T05:53:57.949Z,38.46
2017-07-08T05:55:07.999Z,38.3
2017-07-08T05:56:18.375Z,38.24
2017-07-08T05:57:28.747Z,38.06
2017-07-08T05:58:39.102Z,37.86
2017-07-08T05:59:49.510Z,37.81
2017-07-08T06:00:59.559Z,37.65
2017-07-08T06:02:09.913Z,37.48
2017-07-08T06:03:19.950Z,37.37
2017-07-08T06:04:30.328Z,37.31
2017-07-08T06:05:40.679Z,37.18
2017-07-08T06:06:51.060Z,37.15
2017-07-08T06:08:01.101Z,37.05
2017-07-08T06:09:11.438Z,36.96
2017-07-08T06:10:21.795Z,36.89
2017-07-08T06:11:32.217Z,36.78
2017-07-08T06:12:42.574Z,36.86
2017-07-08T06:13:52.917Z,36.77
2017-07-08T06:15:03.272Z,36.81
2017-07-08T06:16:13.319Z,36.7
2017-07-08T06:17:23.733Z,36.81
2017-07-08T06:18:33.778Z,36.71
2017-07-08T06:19:44.140Z,36.73
2017-07-08T06:20:54.179Z,36.71
2017-07-08T06:22:04.544Z,36.67
2017-07-08T06:23:14.890Z,36.62
2017-07-08T06:24:25.238Z,36.53
2017-07-08T06:25:35.599Z,36.49
2017-07-08T06:26:45.956Z,36.46
2017-07-08T06:27:56.320Z,36.37
2017-07-08T06:29:06.726Z,36.32
2017-07-08T06:30:17.068Z,36.08
2017-07-08T06:31:27.103Z,36.06
2017-07-08T06:32:37.482Z,36.17
2017-07-08T06:33:47.522Z,36.05
2017-07-08T06:34:57.944Z,36.14
2017-07-08T06:36:07.996Z,36.21
2017-07-08T06:37:18.366Z,36.12
2017-07-08T06:38:28.723Z,36.09
2017-07-08T06:39:38.766Z,36.02
2017-07-08T06:40:48.807Z,35.76
2017-07-08T06:41:58.843Z,35.62
2017-07-08T06:43:09.209Z,35.4
2017-07-08T06:44:19.564Z,35.28
2017-07-08T06:45:29.926Z,35.24
2017-07-08T06:46:39.958Z,35.15
2017-07-08T06:47:50.368Z,35.09
2017-07-08T06:49:00.727Z,34.93
2017-07-08T06:50:11.081Z,34.97
2017-07-08T06:51:21.445Z,34.93
2017-07-08T06:52:31.791Z,34.84
2017-07-08T06:53:42.150Z,34.79
2017-07-08T06:54:52.194Z,34.66
2017-07-08T06:56:01.930Z,34.67
2017-07-08T06:57:12.310Z,34.63
2017-07-08T06:58:22.673Z,34.51
2017-07-08T06:59:33.031Z,34.54
2017-07-08T07:00:43.397Z,34.54
2017-07-08T07:01:53.759Z,34.54
2017-07-08T07:03:04.123Z,34.43
2017-07-08T07:04:14.210Z,34.33
2017-07-08T07:05:24.250Z,34.34
2017-07-08T07:06:34.606Z,34.29
2017-07-08T07:07:44.322Z,34.17
2017-07-08T07:08:54.681Z,34.15
2017-07-08T07:10:05.087Z,34.1
2017-07-08T07:11:15.447Z,34.08
2017-07-08T07:12:25.803Z,34.02
2017-07-08T07:13:36.168Z,33.95
2017-07-08T07:14:46.529Z,34
2017-07-08T07:15:57.112Z,33.95
2017-07-08T07:17:07.484Z,33.85
2017-07-08T07:18:17.853Z,33.73
2017-07-08T07:19:27.895Z,33.58
2017-07-08T07:20:38.256Z,33.58
2017-07-08T07:21:48.391Z,33.41
2017-07-08T07:22:58.740Z,33.32
2017-07-08T07:24:08.460Z,33.26
2017-07-08T07:25:18.809Z,33.37
2017-07-08T07:26:29.173Z,33.29
2017-07-08T07:27:39.547Z,33.24
2017-07-08T07:28:49.603Z,33.29
2017-07-08T07:29:59.976Z,33.31
2017-07-08T07:31:09.734Z,33.26
2017-07-08T07:32:20.105Z,33.36
2017-07-08T07:33:30.192Z,33.34
2017-07-08T07:34:40.233Z,33.41
2017-07-08T07:35:50.259Z,33.39
2017-07-08T07:37:00.610Z,33.39
2017-07-08T07:38:10.976Z,33.37
2017-07-08T07:39:21.400Z,33.39
2017-07-08T07:40:31.438Z,33.44
2017-07-08T07:41:41.499Z,33.41
2017-07-08T07:42:51.537Z,33.34
2017-07-08T07:44:01.906Z,33.41
2017-07-08T07:45:12.004Z,33.48
2017-07-08T07:46:22.371Z,33.56
2017-07-08T07:47:32.733Z,33.62
2017-07-08T07:48:43.090Z,33.66
2017-07-08T07:49:53.455Z,33.63
2017-07-08T07:51:03.822Z,33.68
2017-07-08T07:52:14.179Z,33.78
2017-07-08T07:53:24.521Z,33.77
2017-07-08T07:54:34.561Z,33.83
2017-07-08T07:55:44.930Z,33.89
2017-07-08T07:56:55.344Z,34.03
2017-07-08T07:58:05.688Z,34.05
2017-07-08T07:59:15.739Z,34.1
2017-07-08T08:00:26.102Z,34.14
2017-07-08T08:01:36.147Z,34.19
2017-07-08T08:02:46.522Z,34.32
2017-07-08T08:03:56.579Z,34.33
2017-07-08T08:05:06.945Z,34.33
2017-07-08T08:06:17.328Z,34.36
2017-07-08T08:07:27.368Z,34.34
2017-07-08T08:08:37.772Z,34.49
2017-07-08T08:09:48.122Z,34.39
2017-07-08T08:10:58.491Z,34.46
2017-07-08T08:12:08.846Z,34.4
2017-07-08T08:13:19.251Z,34.54
2017-07-08T08:14:29.603Z,34.66
2017-07-08T08:15:39.980Z,34.63
2017-07-08T08:16:50.360Z,34.66
2017-07-08T08:18:00.719Z,34.67
2017-07-08T08:19:10.763Z,34.71
2017-07-08T08:20:21.188Z,34.81
2017-07-08T08:21:31.552Z,34.84
2017-07-08T08:22:41.599Z,34.83
2017-07-08T08:23:51.967Z,34.96
2017-07-08T08:25:02.007Z,34.9
2017-07-08T08:26:12.426Z,35.09
2017-07-08T08:27:22.467Z,35.05
2017-07-08T08:28:32.492Z,35.15
2017-07-08T08:29:42.855Z,35.23
2017-07-08T08:30:53.218Z,35.3
2017-07-08T08:32:03.279Z,35.24
2017-07-08T08:33:13.636Z,35.28
2017-07-08T08:34:23.997Z,35.34
2017-07-08T08:35:34.412Z,35.47
2017-07-08T08:36:44.451Z,35.47
2017-07-08T08:37:54.803Z,35.31
2017-07-08T08:39:04.849Z,35.21
2017-07-08T08:40:14.882Z,35.33
2017-07-08T08:41:25.252Z,35.53
2017-07-08T08:42:35.599Z,35.38
2017-07-08T08:43:45.959Z,35.06
2017-07-08T08:44:56.314Z,34.83
2017-07-08T08:46:06.679Z,34.93
2017-07-08T08:47:17.045Z,34.9
2017-07-08T08:48:27.413Z,34.96
2017-07-08T08:49:37.817Z,35.2
2017-07-08T08:50:48.210Z,35.31
2017-07-08T08:51:58.274Z,35.12
2017-07-08T08:53:08.640Z,34.91
2017-07-08T08:54:18.999Z,34.99
2017-07-08T08:55:29.419Z,34.97
2017-07-08T08:56:39.762Z,35.18
2017-07-08T08:57:50.136Z,35.33
2017-07-08T08:59:00.191Z,35.61
2017-07-08T09:00:10.546Z,35.67
2017-07-08T09:01:20.958Z,35.74
2017-07-08T09:02:31.314Z,35.64
2017-07-08T09:03:41.372Z,35.79
2017-07-08T09:04:51.760Z,35.46
2017-07-08T09:06:02.143Z,35.52
2017-07-08T09:07:12.493Z,35.67
2017-07-08T09:08:22.875Z,35.95
2017-07-08T09:09:33.232Z,36.15
2017-07-08T09:10:43.602Z,35.86
2017-07-08T09:11:53.963Z,35.53
2017-07-08T09:13:04.381Z,35.42
2017-07-08T09:14:14.768Z,35.39
2017-07-08T09:15:24.829Z,35.49
2017-07-08T09:16:34.876Z,35.69
2017-07-08T09:17:44.922Z,35.82
2017-07-08T09:18:54.652Z,35.8
2017-07-08T09:20:05.028Z,35.95
2017-07-08T09:21:15.395Z,36.06
2017-07-08T09:22:25.765Z,36.33
2017-07-08T09:23:36.116Z,36.56
2017-07-08T09:24:46.519Z,36.68
2017-07-08T09:25:56.898Z,36.37
2017-07-08T09:27:07.258Z,36.14
2017-07-08T09:28:17.675Z,35.84
2017-07-08T09:29:27.742Z,35.77
2017-07-08T09:30:37.148Z,35.96
2017-07-08T09:31:47.189Z,35.9
2017-07-08T09:32:57.227Z,35.53
2017-07-08T09:34:07.258Z,35.35
2017-07-08T09:35:17.653Z,35.4
2017-07-08T09:36:27.082Z,35.26
2017-07-08T09:37:36.803Z,35.11
2017-07-08T09:38:47.166Z,35.06
2017-07-08T09:39:57.542Z,35.26
2017-07-08T09:41:07.920Z,35.67
2017-07-08T09:42:18.363Z,36.02
2017-07-08T09:43:28.769Z,36.26
2017-07-08T09:44:39.129Z,36.34
2017-07-08T09:45:49.478Z,36.55
2017-07-08T09:46:59.833Z,36.71
2017-07-08T09:48:09.881Z,36.86
2017-07-08T09:49:20.263Z,37.24
2017-07-08T09:50:30.319Z,37.23
2017-07-08T09:51:40.408Z,36.86
2017-07-08T09:52:50.811Z,36.81
2017-07-08T09:54:00.852Z,36.99
2017-07-08T09:55:10.587Z,37.12
2017-07-08T09:56:20.960Z,37.36
2017-07-08T09:57:31.343Z,37.17
2017-07-08T09:58:41.697Z,36.78
2017-07-08T09:59:52.058Z,36.9
2017-07-08T10:01:01.516Z,37.18
2017-07-08T10:02:11.882Z,36.95
2017-07-08T10:03:22.253Z,36.67
2017-07-08T10:04:32.603Z,36.62
2017-07-08T10:05:42.988Z,36.65
2017-07-08T10:06:53.098Z,36.77
2017-07-08T10:08:03.466Z,36.51
2017-07-08T10:09:13.830Z,36.4
2017-07-08T10:10:24.213Z,36.61
2017-07-08T10:11:34.273Z,36.9
2017-07-08T10:12:44.671Z,37.27
2017-07-08T10:13:55.040Z,37.14
2017-07-08T10:15:05.401Z,37.34
2017-07-08T10:16:15.444Z,37.76
2017-07-08T10:17:25.814Z,37.98
2017-07-08T10:18:35.911Z,38.22
2017-07-08T10:19:45.974Z,38.43
2017-07-08T10:20:56.339Z,38.39
2017-07-08T10:22:06.702Z,38.61
2017-07-08T10:23:16.758Z,38.99
2017-07-08T10:24:27.175Z,39.18
2017-07-08T10:25:36.921Z,39.01
2017-07-08T10:26:47.304Z,38.59
2017-07-08T10:27:57.690Z,38.09
2017-07-08T10:29:08.070Z,37.76
2017-07-08T10:30:18.497Z,37.81
2017-07-08T10:31:28.555Z,38.08
2017-07-08T10:32:38.617Z,38.25
2017-07-08T10:33:48.984Z,38.71
2017-07-08T10:34:59.350Z,39.15
2017-07-08T10:36:09.127Z,38.97
2017-07-08T10:37:19.489Z,39.15
2017-07-08T10:38:29.852Z,39.03
2017-07-08T10:39:40.229Z,38.74
2017-07-08T10:40:50.606Z,38.84
2017-07-08T10:42:01.026Z,39
2017-07-08T10:43:11.083Z,38.55
2017-07-08T10:44:21.139Z,38.21
2017-07-08T10:45:31.507Z,38.58
2017-07-08T10:46:41.902Z,38.92
2017-07-08T10:47:52.325Z,38.56
2017-07-08T10:49:02.368Z,38.36
2017-07-08T10:50:12.425Z,38.27
2017-07-08T10:51:22.466Z,38.61
2017-07-08T10:52:32.829Z,39.27
2017-07-08T10:53:43.244Z,39.71
2017-07-08T10:54:53.610Z,40.1
2017-07-08T10:56:03.671Z,40.47
2017-07-08T10:57:14.051Z,40.69
2017-07-08T10:58:24.101Z,40.79
2017-07-08T10:59:34.475Z,40.85
2017-07-08T11:00:44.858Z,40.93
2017-07-08T11:01:55.214Z,40.79
2017-07-08T11:03:05.590Z,40.75
2017-07-08T11:04:15.987Z,40.45
2017-07-08T11:05:26.069Z,40.06
2017-07-08T11:06:36.434Z,39.93
2017-07-08T11:07:46.488Z,40.18
2017-07-08T11:08:56.538Z,40.38
2017-07-08T11:10:06.899Z,40.54
2017-07-08T11:11:17.265Z,40.79
2017-07-08T11:12:27.610Z,40.93
2017-07-08T11:13:37.978Z,41.03
2017-07-08T11:14:47.711Z,41.15
2017-07-08T11:15:57.760Z,41.22
2017-07-08T11:17:07.845Z,41.26
2017-07-08T11:18:17.897Z,41.08
2017-07-08T11:19:27.973Z,41.25
2017-07-08T11:20:38.341Z,41.38
2017-07-08T11:21:48.718Z,41.4
2017-07-08T11:22:59.122Z,41.15
2017-07-08T11:24:09.478Z,40.84
2017-07-08T11:25:19.860Z,40.32
2017-07-08T11:26:29.905Z,39.9
2017-07-08T11:27:40.303Z,39.49
2017-07-08T11:28:50.364Z,39.15
2017-07-08T11:30:00.428Z,38.71
2017-07-08T11:31:10.803Z,38.59
2017-07-08T11:32:20.857Z,38.21
2017-07-08T11:33:31.251Z,38.02
2017-07-08T11:34:41.612Z,37.74
2017-07-08T11:35:51.979Z,37.59
2017-07-08T11:37:02.340Z,37.42
2017-07-08T11:38:12.703Z,37.3
2017-07-08T11:39:23.080Z,37.29
2017-07-08T11:40:33.472Z,37.39
2017-07-08T11:41:43.624Z,37.34
2017-07-08T11:42:53.723Z,37.44
2017-07-08T11:44:04.098Z,37.45
2017-07-08T11:45:14.484Z,37.36
2017-07-08T11:46:24.836Z,37.24
2017-07-08T11:47:34.577Z,37.09
2017-07-08T11:48:44.959Z,36.93
2017-07-08T11:49:55.340Z,36.88
2017-07-08T11:51:05.399Z,36.75
2017-07-08T11:52:15.452Z,36.65
2017-07-08T11:53:25.506Z,36.58
2017-07-08T11:54:34.933Z,36.53
2017-07-08T11:55:44.990Z,36.47
2017-07-08T11:56:55.415Z,36.36
2017-07-08T11:58:05.153Z,36.33
2017-07-08T11:59:15.516Z,36.25
2017-07-08T12:00:25.884Z,36.25
2017-07-08T12:01:36.251Z,36.14
2017-07-08T12:02:46.612Z,35.8
2017-07-08T12:03:56.720Z,35.45
2017-07-08T12:05:07.086Z,35.12
2017-07-08T12:06:17.442Z,34.71
2017-07-08T12:07:27.813Z,34.34
2017-07-08T12:08:38.179Z,33.92
2017-07-08T12:09:48.586Z,33.59
2017-07-08T12:10:58.935Z,33.17
2017-07-08T12:12:09.290Z,32.96
2017-07-08T12:13:19.023Z,32.71
2017-07-08T12:14:29.380Z,32.24
2017-07-08T12:15:39.486Z,31.3
2017-07-08T12:16:49.842Z,30.52
2017-07-08T12:18:00.215Z,30.18
2017-07-08T12:19:10.596Z,30.04
2017-07-08T12:20:20.956Z,29.92
2017-07-08T12:21:31.374Z,29.76
2017-07-08T12:22:41.725Z,29.52
2017-07-08T12:23:51.913Z,29.45
2017-07-08T12:25:01.982Z,29.23
2017-07-08T12:26:12.037Z,29.1
2017-07-08T12:27:22.385Z,28.92
2017-07-08T12:28:32.733Z,28.88
2017-07-08T12:29:42.823Z,28.86
2017-07-08T12:30:52.865Z,28.8
2017-07-08T12:32:03.219Z,28.98
2017-07-08T12:33:13.268Z,29.13
2017-07-08T12:34:23.679Z,29.35
2017-07-08T12:35:33.720Z,29.52
2017-07-08T12:36:43.437Z,29.6
2017-07-08T12:37:53.804Z,29.79
2017-07-08T12:39:03.846Z,29.77
2017-07-08T12:40:13.888Z,29.66
2017-07-08T12:41:24.249Z,29.52
2017-07-08T12:42:34.287Z,29.43
2017-07-08T12:43:44.656Z,29.36
2017-07-08T12:44:54.752Z,29.18
2017-07-08T12:46:05.098Z,29.14
2017-07-08T12:47:15.453Z,29.06
2017-07-08T12:48:25.814Z,29.13
2017-07-08T12:49:36.165Z,29.24
2017-07-08T12:50:46.515Z,29.33
2017-07-08T12:51:56.565Z,29.4
2017-07-08T12:53:06.592Z,29.43
2017-07-08T12:54:16.942Z,29.61
2017-07-08T12:55:26.657Z,29.81
2017-07-08T12:56:37.264Z,30.03
2017-07-08T12:57:47.632Z,30.24
2017-07-08T12:58:57.727Z,30.56
2017-07-08T13:00:07.760Z,31
2017-07-08T13:01:18.106Z,31.4
2017-07-08T13:02:28.468Z,31.6
2017-07-08T13:03:38.828Z,31.91
2017-07-08T13:04:49.175Z,32.16
2017-07-08T13:05:59.533Z,32.56
2017-07-08T13:07:09.581Z,33.17
2017-07-08T13:08:19.603Z,33.89
2017-07-08T13:09:29.965Z,34.21
2017-07-08T13:10:39.674Z,34.71
2017-07-08T13:11:50.071Z,34.99
2017-07-08T13:13:00.422Z,35.12
2017-07-08T13:14:10.459Z,35.33
2017-07-08T13:15:20.500Z,35.43
2017-07-08T13:16:30.854Z,35.55
2017-07-08T13:17:41.217Z,35.71
2017-07-08T13:18:51.253Z,35.74
2017-07-08T13:20:01.615Z,35.33
2017-07-08T13:21:11.329Z,35.11
2017-07-08T13:22:21.739Z,34.79
2017-07-08T13:23:32.080Z,34.64
2017-07-08T13:24:42.122Z,34.43
2017-07-08T13:25:52.191Z,34.45
2017-07-08T13:27:02.539Z,34.41
2017-07-08T13:28:12.902Z,34.48
2017-07-08T13:29:23.268Z,34.46
2017-07-08T13:30:33.619Z,34.58
2017-07-08T13:31:43.976Z,34.96
2017-07-08T13:32:54.318Z,34.93
2017-07-08T13:34:04.704Z,34.87
2017-07-08T13:35:14.742Z,34.59
2017-07-08T13:36:24.459Z,34.37
2017-07-08T13:37:34.810Z,34.32
2017-07-08T13:38:45.170Z,34.24
2017-07-08T13:39:55.545Z,34.24
2017-07-08T13:41:05.956Z,34.22
2017-07-08T13:42:15.996Z,34.29
2017-07-08T13:43:26.366Z,34.33
2017-07-08T13:44:36.736Z,34.43
2017-07-08T13:45:46.787Z,34.67
2017-07-08T13:46:56.580Z,34.83
2017-07-08T13:48:06.955Z,34.9
2017-07-08T13:49:17.322Z,35.26
2017-07-08T13:50:27.392Z,35.31
2017-07-08T13:51:37.770Z,35.31
2017-07-08T13:52:48.124Z,35.68
2017-07-08T13:53:58.158Z,35.79
2017-07-08T13:55:08.510Z,36.21
2017-07-08T13:56:18.565Z,36.39
2017-07-08T13:57:28.932Z,36.59
2017-07-08T13:58:39.343Z,36.8
2017-07-08T13:59:49.699Z,37.17
2017-07-08T14:01:00.067Z,37.81
2017-07-08T14:02:10.427Z,38.2
2017-07-08T14:03:20.805Z,38.54
2017-07-08T14:04:31.303Z,38.71
2017-07-08T14:05:41.671Z,38.89
2017-07-08T14:06:52.043Z,38.9
2017-07-08T14:08:02.077Z,38.74
2017-07-08T14:09:12.443Z,38.73
2017-07-08T14:10:22.856Z,38.49
2017-07-08T14:11:33.220Z,38.4
2017-07-08T14:12:43.578Z,38.06
2017-07-08T14:13:53.955Z,37.76
2017-07-08T14:15:04.303Z,37.33
2017-07-08T14:16:14.097Z,36.99
2017-07-08T14:17:24.166Z,36.77
2017-07-08T14:18:34.537Z,36.43
2017-07-08T14:19:44.584Z,36.33
2017-07-08T14:20:54.324Z,36.28
2017-07-08T14:22:04.731Z,36.24
2017-07-08T14:23:15.086Z,36.18
2017-07-08T14:24:25.434Z,36.17
2017-07-08T14:25:35.787Z,35.94
2017-07-08T14:26:46.153Z,35.9
2017-07-08T14:27:56.270Z,35.77
2017-07-08T14:29:06.634Z,35.74
2017-07-08T14:30:16.360Z,35.65
2017-07-08T14:31:26.092Z,35.55
2017-07-08T14:32:36.128Z,35.45
2017-07-08T14:33:46.488Z,35.28
2017-07-08T14:34:56.901Z,35.24
2017-07-08T14:36:07.259Z,35.24
2017-07-08T14:37:17.295Z,35.23
2017-07-08T14:38:27.406Z,35.27
2017-07-08T14:39:37.840Z,35.4
2017-07-08T14:40:48.204Z,35.58
2017-07-08T14:41:58.576Z,35.64
2017-07-08T14:43:08.935Z,35.74
2017-07-08T14:44:19.290Z,35.71
2017-07-08T14:45:29.068Z,35.79
2017-07-08T14:46:39.424Z,35.65
2017-07-08T14:47:49.785Z,35.67
2017-07-08T14:48:59.508Z,35.62
2017-07-08T14:50:09.889Z,35.52
2017-07-08T14:51:20.230Z,35.43
2017-07-08T14:52:30.587Z,35.45
2017-07-08T14:53:40.634Z,35.61
2017-07-08T14:54:50.679Z,35.47
2017-07-08T14:56:01.068Z,35.62
2017-07-08T14:57:11.419Z,35.68
2017-07-08T14:58:21.775Z,35.71
2017-07-08T14:59:32.137Z,35.69
2017-07-08T15:00:42.525Z,35.84
2017-07-08T15:01:52.573Z,35.98
2017-07-08T15:03:02.965Z,35.96
2017-07-08T15:04:13.400Z,36.05
2017-07-08T15:05:23.772Z,36.06
2017-07-08T15:06:34.146Z,36.08
2017-07-08T15:07:44.522Z,36.04
2017-07-08T15:08:54.626Z,36.08
2017-07-08T15:10:04.979Z,36.22
2017-07-08T15:11:15.050Z,36.28
2017-07-08T15:12:25.404Z,36.28
2017-07-08T15:13:35.449Z,36.28
2017-07-08T15:14:45.551Z,36.33
2017-07-08T15:15:55.914Z,36.36
2017-07-08T15:17:06.270Z,36.32
2017-07-08T15:18:16.640Z,36.34
2017-07-08T15:19:27.002Z,36.37
2017-07-08T15:20:36.734Z,36.43
2017-07-08T15:21:46.781Z,36.43
2017-07-08T15:22:56.824Z,36.46
2017-07-08T15:24:07.190Z,36.52
2017-07-08T15:25:17.541Z,36.55
2017-07-08T15:26:27.965Z,36.55
2017-07-08T15:27:38.316Z,36.53
2017-07-08T15:28:48.682Z,36.43
2017-07-08T15:29:58.719Z,36.61
2017-07-08T15:31:08.445Z,36.89
2017-07-08T15:32:18.859Z,37.22
2017-07-08T15:33:29.213Z,37.45
2017-07-08T15:34:39.586Z,37.65
2017-07-08T15:35:49.969Z,37.87
2017-07-08T15:37:00.333Z,38.05
2017-07-08T15:38:10.850Z,37.86